Jard de Yabucoa, Puerto Rico
Current Conditions -  °F | °C
As of 8:53 AM on Monday 20 Oct 2014 (Local Time) from TJNR Reporting Station
Few Clouds Few Clouds  
Wind Chill: 83°   Ceiling: Unl
Heat Index: 89°   Visibility: 10mi
Dew Point: 74°   Wind: 7mph
Humidity: 74%   Direction: 60°ENE
Pressure: 30.01"   Gusts: NA
Location:  18.0547°N, 65.8738°W
Report Text: TJNR 201253Z AUTO 06006KT 10SM FEW025 28/23 A3001 RMK AO2 SLP162 T02830233
Loading
Personal Weather Stations






























Interactive Weather Map
Tropical Storm Tracking
New forecast layout! Learn more

10-Day Weather Forecast

Advertisements
Track Severe Weather on mobile